sensor_id;sensor_type;location;lat;lon;timestamp;P1;durP1;ratioP1;P2;durP2;ratioP2
66893;SDS011;53801;55.786;49.142;2024-02-14T00:00:39;3.20;;;1.30;;
66893;SDS011;53801;55.786;49.142;2024-02-14T00:03:06;2.65;;;1.30;;
66893;SDS011;53801;55.786;49.142;2024-02-14T00:05:33;3.30;;;1.00;;
66893;SDS011;53801;55.786;49.142;2024-02-14T00:07:59;4.65;;;1.42;;
66893;SDS011;53801;55.786;49.142;2024-02-14T00:10:25;2.83;;;0.80;;
66893;SDS011;53801;55.786;49.142;2024-02-14T00:12:51;2.78;;;1.00;;
66893;SDS011;53801;55.786;49.142;2024-02-14T00:15:17;4.88;;;2.00;;
66893;SDS011;53801;55.786;49.142;2024-02-14T00:17:42;5.03;;;1.10;;
66893;SDS011;53801;55.786;49.142;2024-02-14T00:20:08;6.97;;;1.80;;
66893;SDS011;53801;55.786;49.142;2024-02-14T00:22:53;7.18;;;2.05;;
66893;SDS011;53801;55.786;49.142;2024-02-14T00:25:19;4.53;;;1.97;;
66893;SDS011;53801;55.786;49.142;2024-02-14T00:27:53;5.03;;;1.50;;
66893;SDS011;53801;55.786;49.142;2024-02-14T00:30:19;3.20;;;0.93;;
66893;SDS011;53801;55.786;49.142;2024-02-14T00:33:08;4.15;;;0.88;;
66893;SDS011;53801;55.786;49.142;2024-02-14T00:35:36;4.55;;;1.52;;
66893;SDS011;53801;55.786;49.142;2024-02-14T00:38:02;4.23;;;1.90;;
66893;SDS011;53801;55.786;49.142;2024-02-14T00:40:28;5.47;;;1.20;;
66893;SDS011;53801;55.786;49.142;2024-02-14T00:42:53;6.50;;;1.25;;
66893;SDS011;53801;55.786;49.142;2024-02-14T00:45:19;7.57;;;2.27;;
66893;SDS011;53801;55.786;49.142;2024-02-14T00:47:44;2.20;;;0.70;;
66893;SDS011;53801;55.786;49.142;2024-02-14T00:50:10;9.48;;;1.85;;
66893;SDS011;53801;55.786;49.142;2024-02-14T00:52:36;4.87;;;1.10;;
66893;SDS011;53801;55.786;49.142;2024-02-14T00:55:01;2.80;;;1.13;;
66893;SDS011;53801;55.786;49.142;2024-02-14T00:57:35;7.30;;;1.83;;
66893;SDS011;53801;55.786;49.142;2024-02-14T01:00:01;5.97;;;1.60;;
66893;SDS011;53801;55.786;49.142;2024-02-14T01:02:33;12.65;;;1.90;;
66893;SDS011;53801;55.786;49.142;2024-02-14T01:05:02;4.38;;;1.25;;
66893;SDS011;53801;55.786;49.142;2024-02-14T01:07:32;6.65;;;1.42;;
66893;SDS011;53801;55.786;49.142;2024-02-14T01:10:00;4.68;;;1.13;;
66893;SDS011;53801;55.786;49.142;2024-02-14T01:12:29;4.03;;;2.27;;
66893;SDS011;53801;55.786;49.142;2024-02-14T01:14:57;5.38;;;1.70;;
66893;SDS011;53801;55.786;49.142;2024-02-14T01:17:23;3.95;;;1.42;;
66893;SDS011;53801;55.786;49.142;2024-02-14T01:19:49;1.60;;;0.73;;
66893;SDS011;53801;55.786;49.142;2024-02-14T01:22:14;2.30;;;0.88;;
66893;SDS011;53801;55.786;49.142;2024-02-14T01:25:01;5.73;;;1.83;;
66893;SDS011;53801;55.786;49.142;2024-02-14T01:27:31;2.85;;;1.02;;
66893;SDS011;53801;55.786;49.142;2024-02-14T01:29:56;15.63;;;1.50;;
66893;SDS011;53801;55.786;49.142;2024-02-14T01:32:22;3.88;;;1.30;;
66893;SDS011;53801;55.786;49.142;2024-02-14T01:34:48;4.90;;;1.40;;
66893;SDS011;53801;55.786;49.142;2024-02-14T01:37:14;4.03;;;1.10;;
66893;SDS011;53801;55.786;49.142;2024-02-14T01:39:39;6.93;;;1.97;;
66893;SDS011;53801;55.786;49.142;2024-02-14T01:42:05;5.97;;;1.77;;
66893;SDS011;53801;55.786;49.142;2024-02-14T01:44:32;6.20;;;1.83;;
66893;SDS011;53801;55.786;49.142;2024-02-14T01:47:02;4.50;;;0.93;;
66893;SDS011;53801;55.786;49.142;2024-02-14T01:49:28;4.80;;;1.88;;
66893;SDS011;53801;55.786;49.142;2024-02-14T01:51:58;4.47;;;1.20;;
66893;SDS011;53801;55.786;49.142;2024-02-14T01:54:26;4.63;;;2.08;;
66893;SDS011;53801;55.786;49.142;2024-02-14T01:56:52;6.55;;;2.03;;
66893;SDS011;53801;55.786;49.142;2024-02-14T01:59:18;3.03;;;0.87;;
66893;SDS011;53801;55.786;49.142;2024-02-14T02:01:44;3.97;;;1.35;;
66893;SDS011;53801;55.786;49.142;2024-02-14T02:04:09;7.77;;;1.13;;
66893;SDS011;53801;55.786;49.142;2024-02-14T02:06:36;19.73;;;2.28;;
66893;SDS011;53801;55.786;49.142;2024-02-14T02:09:01;2.17;;;0.97;;
66893;SDS011;53801;55.786;49.142;2024-02-14T02:11:27;6.05;;;1.58;;
66893;SDS011;53801;55.786;49.142;2024-02-14T02:14:12;6.20;;;1.83;;
66893;SDS011;53801;55.786;49.142;2024-02-14T02:16:58;1.37;;;0.53;;
66893;SDS011;53801;55.786;49.142;2024-02-14T02:19:43;2.70;;;1.33;;
66893;SDS011;53801;55.786;49.142;2024-02-14T02:22:28;2.35;;;0.85;;
66893;SDS011;53801;55.786;49.142;2024-02-14T02:25:17;3.15;;;1.30;;
66893;SDS011;53801;55.786;49.142;2024-02-14T02:28:02;2.65;;;1.40;;
66893;SDS011;53801;55.786;49.142;2024-02-14T02:30:36;4.88;;;1.83;;
66893;SDS011;53801;55.786;49.142;2024-02-14T02:33:02;3.05;;;1.15;;
66893;SDS011;53801;55.786;49.142;2024-02-14T02:35:29;5.63;;;1.73;;
66893;SDS011;53801;55.786;49.142;2024-02-14T02:38:14;12.60;;;1.17;;
66893;SDS011;53801;55.786;49.142;2024-02-14T02:41:00;7.28;;;1.25;;
66893;SDS011;53801;55.786;49.142;2024-02-14T02:43:45;4.37;;;1.77;;
66893;SDS011;53801;55.786;49.142;2024-02-14T02:46:49;1.38;;;0.43;;
66893;SDS011;53801;55.786;49.142;2024-02-14T02:49:34;7.10;;;2.30;;
66893;SDS011;53801;55.786;49.142;2024-02-14T02:52:22;8.65;;;1.98;;
66893;SDS011;53801;55.786;49.142;2024-02-14T02:55:07;2.70;;;1.73;;
66893;SDS011;53801;55.786;49.142;2024-02-14T02:57:41;2.17;;;0.63;;
66893;SDS011;53801;55.786;49.142;2024-02-14T03:00:07;4.03;;;1.17;;
66893;SDS011;53801;55.786;49.142;2024-02-14T03:02:42;9.47;;;2.47;;
66893;SDS011;53801;55.786;49.142;2024-02-14T03:05:25;2.08;;;0.70;;
66893;SDS011;53801;55.786;49.142;2024-02-14T03:08:11;7.05;;;2.47;;
66893;SDS011;53801;55.786;49.142;2024-02-14T03:11:07;16.27;;;0.97;;
66893;SDS011;53801;55.786;49.142;2024-02-14T03:13:52;4.45;;;0.95;;
66893;SDS011;53801;55.786;49.142;2024-02-14T03:16:38;1.08;;;0.60;;
66893;SDS011;53801;55.786;49.142;2024-02-14T03:19:04;3.03;;;1.00;;
66893;SDS011;53801;55.786;49.142;2024-02-14T03:21:30;3.78;;;1.67;;
66893;SDS011;53801;55.786;49.142;2024-02-14T03:23:58;7.47;;;1.88;;
66893;SDS011;53801;55.786;49.142;2024-02-14T03:26:23;2.80;;;0.80;;
66893;SDS011;53801;55.786;49.142;2024-02-14T03:28:49;5.00;;;0.93;;
66893;SDS011;53801;55.786;49.142;2024-02-14T03:31:14;2.67;;;1.00;;
66893;SDS011;53801;55.786;49.142;2024-02-14T03:33:41;1.63;;;0.70;;
66893;SDS011;53801;55.786;49.142;2024-02-14T03:36:07;5.28;;;1.63;;
66893;SDS011;53801;55.786;49.142;2024-02-14T03:38:32;5.07;;;1.63;;
66893;SDS011;53801;55.786;49.142;2024-02-14T03:40:58;3.67;;;0.97;;
66893;SDS011;53801;55.786;49.142;2024-02-14T03:43:23;6.97;;;1.13;;
66893;SDS011;53801;55.786;49.142;2024-02-14T03:45:49;5.87;;;1.37;;
66893;SDS011;53801;55.786;49.142;2024-02-14T03:48:15;6.07;;;1.90;;
66893;SDS011;53801;55.786;49.142;2024-02-14T03:50:40;3.22;;;1.25;;
66893;SDS011;53801;55.786;49.142;2024-02-14T03:53:08;2.93;;;1.37;;
66893;SDS011;53801;55.786;49.142;2024-02-14T03:55:36;4.60;;;1.23;;
66893;SDS011;53801;55.786;49.142;2024-02-14T03:58:02;3.05;;;0.90;;
66893;SDS011;53801;55.786;49.142;2024-02-14T04:00:28;1.97;;;0.93;;
66893;SDS011;53801;55.786;49.142;2024-02-14T04:02:55;11.32;;;2.42;;
66893;SDS011;53801;55.786;49.142;2024-02-14T04:05:24;4.30;;;1.80;;
66893;SDS011;53801;55.786;49.142;2024-02-14T04:07:51;3.57;;;1.20;;
66893;SDS011;53801;55.786;49.142;2024-02-14T04:10:18;6.38;;;1.35;;
66893;SDS011;53801;55.786;49.142;2024-02-14T04:12:44;5.05;;;1.60;;
66893;SDS011;53801;55.786;49.142;2024-02-14T04:15:09;4.20;;;1.80;;
66893;SDS011;53801;55.786;49.142;2024-02-14T04:17:50;7.90;;;1.65;;
66893;SDS011;53801;55.786;49.142;2024-02-14T04:20:16;11.37;;;3.17;;
66893;SDS011;53801;55.786;49.142;2024-02-14T04:22:42;8.23;;;3.20;;
66893;SDS011;53801;55.786;49.142;2024-02-14T04:25:08;7.25;;;2.38;;
66893;SDS011;53801;55.786;49.142;2024-02-14T04:27:34;3.45;;;1.50;;
66893;SDS011;53801;55.786;49.142;2024-02-14T04:30:00;11.10;;;2.47;;
66893;SDS011;53801;55.786;49.142;2024-02-14T04:32:30;7.73;;;2.10;;
66893;SDS011;53801;55.786;49.142;2024-02-14T04:34:55;9.13;;;3.15;;
66893;SDS011;53801;55.786;49.142;2024-02-14T04:37:21;5.70;;;1.63;;
66893;SDS011;53801;55.786;49.142;2024-02-14T04:39:47;8.27;;;2.08;;
66893;SDS011;53801;55.786;49.142;2024-02-14T04:42:12;10.53;;;3.00;;
66893;SDS011;53801;55.786;49.142;2024-02-14T04:44:38;7.00;;;2.90;;
66893;SDS011;53801;55.786;49.142;2024-02-14T04:47:04;8.68;;;2.22;;
66893;SDS011;53801;55.786;49.142;2024-02-14T04:49:30;9.63;;;3.10;;
66893;SDS011;53801;55.786;49.142;2024-02-14T04:51:59;5.85;;;2.22;;
66893;SDS011;53801;55.786;49.142;2024-02-14T04:54:24;9.37;;;3.37;;
66893;SDS011;53801;55.786;49.142;2024-02-14T04:56:51;13.60;;;4.05;;
66893;SDS011;53801;55.786;49.142;2024-02-14T04:59:16;13.90;;;3.73;;
66893;SDS011;53801;55.786;49.142;2024-02-14T05:01:44;8.13;;;2.80;;
66893;SDS011;53801;55.786;49.142;2024-02-14T05:04:09;9.80;;;4.23;;
66893;SDS011;53801;55.786;49.142;2024-02-14T05:06:35;13.07;;;3.75;;
66893;SDS011;53801;55.786;49.142;2024-02-14T05:09:01;10.68;;;3.92;;
66893;SDS011;53801;55.786;49.142;2024-02-14T05:11:27;12.82;;;4.22;;
66893;SDS011;53801;55.786;49.142;2024-02-14T05:13:53;7.43;;;2.43;;
66893;SDS011;53801;55.786;49.142;2024-02-14T05:16:19;13.15;;;3.58;;
66893;SDS011;53801;55.786;49.142;2024-02-14T05:18:45;5.07;;;1.13;;
66893;SDS011;53801;55.786;49.142;2024-02-14T05:21:10;15.38;;;3.78;;
66893;SDS011;53801;55.786;49.142;2024-02-14T05:23:36;12.30;;;3.60;;
66893;SDS011;53801;55.786;49.142;2024-02-14T05:26:05;5.27;;;2.10;;
66893;SDS011;53801;55.786;49.142;2024-02-14T05:28:30;12.23;;;2.42;;
66893;SDS011;53801;55.786;49.142;2024-02-14T05:30:56;12.70;;;4.10;;
66893;SDS011;53801;55.786;49.142;2024-02-14T05:33:34;6.67;;;1.80;;
66893;SDS011;53801;55.786;49.142;2024-02-14T05:35:59;9.02;;;2.60;;
66893;SDS011;53801;55.786;49.142;2024-02-14T05:38:27;8.73;;;2.60;;
66893;SDS011;53801;55.786;49.142;2024-02-14T05:40:55;7.05;;;2.85;;
66893;SDS011;53801;55.786;49.142;2024-02-14T05:43:29;6.77;;;2.67;;
66893;SDS011;53801;55.786;49.142;2024-02-14T05:45:57;8.38;;;2.90;;
66893;SDS011;53801;55.786;49.142;2024-02-14T05:48:22;7.53;;;2.77;;
66893;SDS011;53801;55.786;49.142;2024-02-14T05:50:48;10.77;;;3.30;;
66893;SDS011;53801;55.786;49.142;2024-02-14T05:53:13;16.40;;;3.23;;
66893;SDS011;53801;55.786;49.142;2024-02-14T05:55:41;18.25;;;5.13;;
66893;SDS011;53801;55.786;49.142;2024-02-14T05:58:07;14.87;;;4.73;;
66893;SDS011;53801;55.786;49.142;2024-02-14T06:00:32;14.20;;;4.50;;
66893;SDS011;53801;55.786;49.142;2024-02-14T06:03:00;18.13;;;4.05;;
66893;SDS011;53801;55.786;49.142;2024-02-14T06:05:29;14.10;;;4.43;;
66893;SDS011;53801;55.786;49.142;2024-02-14T06:07:54;16.05;;;4.70;;
66893;SDS011;53801;55.786;49.142;2024-02-14T06:10:21;11.85;;;3.75;;
66893;SDS011;53801;55.786;49.142;2024-02-14T06:12:46;13.40;;;4.73;;
66893;SDS011;53801;55.786;49.142;2024-02-14T06:15:13;12.10;;;4.93;;
66893;SDS011;53801;55.786;49.142;2024-02-14T06:17:39;14.88;;;5.35;;
66893;SDS011;53801;55.786;49.142;2024-02-14T06:20:06;17.67;;;4.87;;
66893;SDS011;53801;55.786;49.142;2024-02-14T06:22:33;14.13;;;4.97;;
66893;SDS011;53801;55.786;49.142;2024-02-14T06:24:59;15.38;;;4.63;;
66893;SDS011;53801;55.786;49.142;2024-02-14T06:27:25;15.35;;;4.65;;
66893;SDS011;53801;55.786;49.142;2024-02-14T06:29:50;11.40;;;4.72;;
66893;SDS011;53801;55.786;49.142;2024-02-14T06:32:18;14.17;;;4.40;;
66893;SDS011;53801;55.786;49.142;2024-02-14T06:34:44;10.77;;;4.05;;
66893;SDS011;53801;55.786;49.142;2024-02-14T06:37:09;10.37;;;4.67;;
66893;SDS011;53801;55.786;49.142;2024-02-14T06:39:35;13.70;;;4.63;;
66893;SDS011;53801;55.786;49.142;2024-02-14T06:42:01;14.73;;;5.30;;
66893;SDS011;53801;55.786;49.142;2024-02-14T06:44:29;13.87;;;5.23;;
66893;SDS011;53801;55.786;49.142;2024-02-14T06:46:55;13.38;;;5.25;;
66893;SDS011;53801;55.786;49.142;2024-02-14T06:49:20;11.77;;;5.30;;
66893;SDS011;53801;55.786;49.142;2024-02-14T06:51:46;12.10;;;5.13;;
66893;SDS011;53801;55.786;49.142;2024-02-14T06:54:11;12.27;;;5.10;;
66893;SDS011;53801;55.786;49.142;2024-02-14T06:56:50;14.23;;;5.20;;
66893;SDS011;53801;55.786;49.142;2024-02-14T06:59:15;11.43;;;4.80;;
66893;SDS011;53801;55.786;49.142;2024-02-14T07:01:41;11.87;;;4.87;;
66893;SDS011;53801;55.786;49.142;2024-02-14T07:04:07;15.18;;;6.15;;
66893;SDS011;53801;55.786;49.142;2024-02-14T07:06:32;13.93;;;6.47;;
66893;SDS011;53801;55.786;49.142;2024-02-14T07:08:58;16.93;;;7.53;;
66893;SDS011;53801;55.786;49.142;2024-02-14T07:11:23;15.53;;;6.27;;
66893;SDS011;53801;55.786;49.142;2024-02-14T07:13:49;17.88;;;7.22;;
66893;SDS011;53801;55.786;49.142;2024-02-14T07:16:15;14.00;;;5.75;;
66893;SDS011;53801;55.786;49.142;2024-02-14T07:18:44;13.83;;;6.63;;
66893;SDS011;53801;55.786;49.142;2024-02-14T07:21:15;18.38;;;7.35;;
66893;SDS011;53801;55.786;49.142;2024-02-14T07:23:58;15.43;;;7.00;;
66893;SDS011;53801;55.786;49.142;2024-02-14T07:26:26;13.57;;;6.60;;
66893;SDS011;53801;55.786;49.142;2024-02-14T07:28:54;12.73;;;6.32;;
66893;SDS011;53801;55.786;49.142;2024-02-14T07:31:20;15.25;;;7.68;;
66893;SDS011;53801;55.786;49.142;2024-02-14T07:33:53;13.07;;;6.40;;
66893;SDS011;53801;55.786;49.142;2024-02-14T07:36:29;12.07;;;5.97;;
66893;SDS011;53801;55.786;49.142;2024-02-14T07:38:56;12.93;;;6.32;;
66893;SDS011;53801;55.786;49.142;2024-02-14T07:41:21;14.30;;;6.97;;
66893;SDS011;53801;55.786;49.142;2024-02-14T07:43:54;12.15;;;5.85;;
66893;SDS011;53801;55.786;49.142;2024-02-14T07:46:31;14.80;;;7.27;;
66893;SDS011;53801;55.786;49.142;2024-02-14T07:49:06;13.45;;;6.85;;
66893;SDS011;53801;55.786;49.142;2024-02-14T07:51:39;12.20;;;6.07;;
66893;SDS011;53801;55.786;49.142;2024-02-14T07:54:07;11.82;;;5.70;;
66893;SDS011;53801;55.786;49.142;2024-02-14T07:56:33;12.23;;;6.50;;
66893;SDS011;53801;55.786;49.142;2024-02-14T07:58:59;11.70;;;5.85;;
66893;SDS011;53801;55.786;49.142;2024-02-14T08:01:27;12.07;;;5.97;;
66893;SDS011;53801;55.786;49.142;2024-02-14T08:03:56;12.93;;;5.43;;
66893;SDS011;53801;55.786;49.142;2024-02-14T08:06:21;10.52;;;4.90;;
66893;SDS011;53801;55.786;49.142;2024-02-14T08:08:49;10.05;;;5.20;;
66893;SDS011;53801;55.786;49.142;2024-02-14T08:11:19;11.93;;;5.50;;
66893;SDS011;53801;55.786;49.142;2024-02-14T08:13:45;12.70;;;6.10;;
66893;SDS011;53801;55.786;49.142;2024-02-14T08:16:11;12.13;;;5.75;;
66893;SDS011;53801;55.786;49.142;2024-02-14T08:18:36;9.18;;;5.35;;
66893;SDS011;53801;55.786;49.142;2024-02-14T08:21:03;8.73;;;4.68;;
66893;SDS011;53801;55.786;49.142;2024-02-14T08:23:30;11.75;;;4.90;;
66893;SDS011;53801;55.786;49.142;2024-02-14T08:25:56;10.70;;;4.83;;
66893;SDS011;53801;55.786;49.142;2024-02-14T08:28:24;11.48;;;4.85;;
66893;SDS011;53801;55.786;49.142;2024-02-14T08:30:50;8.50;;;4.80;;
66893;SDS011;53801;55.786;49.142;2024-02-14T08:33:22;10.53;;;4.37;;
66893;SDS011;53801;55.786;49.142;2024-02-14T08:35:53;10.45;;;4.82;;
66893;SDS011;53801;55.786;49.142;2024-02-14T08:38:38;10.77;;;4.90;;
66893;SDS011;53801;55.786;49.142;2024-02-14T08:41:04;11.55;;;5.35;;
66893;SDS011;53801;55.786;49.142;2024-02-14T08:43:48;10.33;;;4.47;;
66893;SDS011;53801;55.786;49.142;2024-02-14T08:46:14;13.10;;;5.13;;
66893;SDS011;53801;55.786;49.142;2024-02-14T08:48:40;11.15;;;5.38;;
66893;SDS011;53801;55.786;49.142;2024-02-14T08:51:13;9.95;;;5.25;;
66893;SDS011;53801;55.786;49.142;2024-02-14T08:53:41;12.27;;;5.63;;
66893;SDS011;53801;55.786;49.142;2024-02-14T08:56:15;10.73;;;5.55;;
66893;SDS011;53801;55.786;49.142;2024-02-14T08:59:04;13.70;;;5.60;;
66893;SDS011;53801;55.786;49.142;2024-02-14T09:02:10;11.73;;;5.82;;
66893;SDS011;53801;55.786;49.142;2024-02-14T09:05:14;12.50;;;5.38;;
66893;SDS011;53801;55.786;49.142;2024-02-14T09:08:07;12.53;;;6.30;;
66893;SDS011;53801;55.786;49.142;2024-02-14T09:10:50;13.40;;;5.80;;
66893;SDS011;53801;55.786;49.142;2024-02-14T09:13:16;8.73;;;4.97;;
66893;SDS011;53801;55.786;49.142;2024-02-14T09:15:44;12.10;;;5.53;;
66893;SDS011;53801;55.786;49.142;2024-02-14T09:18:18;10.35;;;5.60;;
66893;SDS011;53801;55.786;49.142;2024-02-14T09:20:44;11.65;;;5.22;;
66893;SDS011;53801;55.786;49.142;2024-02-14T09:23:14;12.18;;;6.53;;
66893;SDS011;53801;55.786;49.142;2024-02-14T09:25:42;11.25;;;5.20;;
66893;SDS011;53801;55.786;49.142;2024-02-14T09:28:08;10.93;;;5.80;;
66893;SDS011;53801;55.786;49.142;2024-02-14T09:30:34;9.63;;;5.05;;
66893;SDS011;53801;55.786;49.142;2024-02-14T09:33:00;10.10;;;5.13;;
66893;SDS011;53801;55.786;49.142;2024-02-14T09:35:25;9.52;;;5.20;;
66893;SDS011;53801;55.786;49.142;2024-02-14T09:37:51;8.20;;;4.83;;
66893;SDS011;53801;55.786;49.142;2024-02-14T09:40:17;8.95;;;4.63;;
66893;SDS011;53801;55.786;49.142;2024-02-14T09:43:05;11.60;;;5.40;;
66893;SDS011;53801;55.786;49.142;2024-02-14T09:45:31;10.23;;;4.80;;
66893;SDS011;53801;55.786;49.142;2024-02-14T09:47:58;8.50;;;4.60;;
66893;SDS011;53801;55.786;49.142;2024-02-14T09:50:25;8.75;;;5.03;;
66893;SDS011;53801;55.786;49.142;2024-02-14T09:52:51;9.73;;;5.00;;
66893;SDS011;53801;55.786;49.142;2024-02-14T09:55:17;8.75;;;4.85;;
66893;SDS011;53801;55.786;49.142;2024-02-14T09:57:46;10.40;;;4.40;;
66893;SDS011;53801;55.786;49.142;2024-02-14T10:00:12;12.48;;;6.20;;
66893;SDS011;53801;55.786;49.142;2024-02-14T10:02:41;8.85;;;4.65;;
66893;SDS011;53801;55.786;49.142;2024-02-14T10:05:09;8.43;;;4.70;;
66893;SDS011;53801;55.786;49.142;2024-02-14T10:07:42;9.60;;;4.63;;
66893;SDS011;53801;55.786;49.142;2024-02-14T10:10:08;10.48;;;5.03;;
66893;SDS011;53801;55.786;49.142;2024-02-14T10:12:34;9.88;;;4.43;;
66893;SDS011;53801;55.786;49.142;2024-02-14T10:14:59;11.33;;;5.13;;
66893;SDS011;53801;55.786;49.142;2024-02-14T10:17:27;11.10;;;5.32;;
66893;SDS011;53801;55.786;49.142;2024-02-14T10:19:59;12.90;;;4.80;;
66893;SDS011;53801;55.786;49.142;2024-02-14T10:22:25;10.05;;;5.10;;
66893;SDS011;53801;55.786;49.142;2024-02-14T10:24:51;9.35;;;4.93;;
66893;SDS011;53801;55.786;49.142;2024-02-14T10:27:17;7.70;;;4.35;;
66893;SDS011;53801;55.786;49.142;2024-02-14T10:29:44;10.65;;;4.45;;
66893;SDS011;53801;55.786;49.142;2024-02-14T10:32:10;11.63;;;5.00;;
66893;SDS011;53801;55.786;49.142;2024-02-14T10:34:39;10.55;;;4.88;;
66893;SDS011;53801;55.786;49.142;2024-02-14T10:37:06;10.02;;;4.78;;
66893;SDS011;53801;55.786;49.142;2024-02-14T10:39:32;9.95;;;4.57;;
66893;SDS011;53801;55.786;49.142;2024-02-14T10:41:58;13.57;;;4.80;;
66893;SDS011;53801;55.786;49.142;2024-02-14T10:44:25;9.30;;;4.30;;
66893;SDS011;53801;55.786;49.142;2024-02-14T10:46:51;7.68;;;4.20;;
66893;SDS011;53801;55.786;49.142;2024-02-14T10:49:18;8.00;;;3.97;;
66893;SDS011;53801;55.786;49.142;2024-02-14T10:51:45;10.80;;;4.82;;
66893;SDS011;53801;55.786;49.142;2024-02-14T10:54:14;9.07;;;4.38;;
66893;SDS011;53801;55.786;49.142;2024-02-14T10:56:42;8.77;;;4.47;;
66893;SDS011;53801;55.786;49.142;2024-02-14T10:59:13;10.55;;;4.53;;
66893;SDS011;53801;55.786;49.142;2024-02-14T11:01:40;10.47;;;4.17;;
66893;SDS011;53801;55.786;49.142;2024-02-14T11:04:06;10.13;;;4.40;;
66893;SDS011;53801;55.786;49.142;2024-02-14T11:06:43;16.17;;;4.82;;
66893;SDS011;53801;55.786;49.142;2024-02-14T11:09:11;8.75;;;4.63;;
66893;SDS011;53801;55.786;49.142;2024-02-14T11:11:38;13.15;;;4.03;;
66893;SDS011;53801;55.786;49.142;2024-02-14T11:14:04;9.93;;;4.63;;
66893;SDS011;53801;55.786;49.142;2024-02-14T11:16:30;15.18;;;6.50;;
66893;SDS011;53801;55.786;49.142;2024-02-14T11:19:07;9.07;;;4.38;;
66893;SDS011;53801;55.786;49.142;2024-02-14T11:21:40;7.90;;;3.93;;
66893;SDS011;53801;55.786;49.142;2024-02-14T11:24:12;8.45;;;4.00;;
66893;SDS011;53801;55.786;49.142;2024-02-14T11:29:06;11.90;;;4.30;;
66893;SDS011;53801;55.786;49.142;2024-02-14T11:31:33;10.90;;;3.75;;
66893;SDS011;53801;55.786;49.142;2024-02-14T11:34:04;9.70;;;3.97;;
66893;SDS011;53801;55.786;49.142;2024-02-14T11:36:31;9.35;;;3.53;;
66893;SDS011;53801;55.786;49.142;2024-02-14T11:38:57;10.33;;;3.30;;
66893;SDS011;53801;55.786;49.142;2024-02-14T11:41:22;8.20;;;3.08;;
66893;SDS011;53801;55.786;49.142;2024-02-14T11:43:51;8.57;;;3.10;;
66893;SDS011;53801;55.786;49.142;2024-02-14T11:46:17;8.30;;;2.83;;
66893;SDS011;53801;55.786;49.142;2024-02-14T11:48:45;7.85;;;3.15;;
66893;SDS011;53801;55.786;49.142;2024-02-14T11:51:11;9.35;;;2.92;;
66893;SDS011;53801;55.786;49.142;2024-02-14T11:53:37;8.87;;;2.90;;
66893;SDS011;53801;55.786;49.142;2024-02-14T11:56:04;10.20;;;2.72;;
66893;SDS011;53801;55.786;49.142;2024-02-14T11:58:30;9.17;;;2.50;;
66893;SDS011;53801;55.786;49.142;2024-02-14T12:00:56;5.88;;;1.67;;
66893;SDS011;53801;55.786;49.142;2024-02-14T12:03:25;11.25;;;2.97;;
66893;SDS011;53801;55.786;49.142;2024-02-14T12:05:52;8.95;;;2.47;;
66893;SDS011;53801;55.786;49.142;2024-02-14T12:08:18;9.63;;;2.30;;
66893;SDS011;53801;55.786;49.142;2024-02-14T12:10:43;8.05;;;2.67;;
66893;SDS011;53801;55.786;49.142;2024-02-14T12:13:12;8.63;;;2.10;;
66893;SDS011;53801;55.786;49.142;2024-02-14T12:15:41;7.37;;;2.03;;
66893;SDS011;53801;55.786;49.142;2024-02-14T12:18:10;6.00;;;2.20;;
66893;SDS011;53801;55.786;49.142;2024-02-14T12:20:36;5.20;;;1.50;;
66893;SDS011;53801;55.786;49.142;2024-02-14T12:23:02;2.08;;;0.75;;
66893;SDS011;53801;55.786;49.142;2024-02-14T12:25:29;4.07;;;1.60;;
66893;SDS011;53801;55.786;49.142;2024-02-14T12:27:58;3.28;;;1.50;;
66893;SDS011;53801;55.786;49.142;2024-02-14T12:31:09;6.57;;;2.00;;
66893;SDS011;53801;55.786;49.142;2024-02-14T12:33:15;7.72;;;1.83;;
66893;SDS011;53801;55.786;49.142;2024-02-14T12:35:42;5.50;;;1.63;;
66893;SDS011;53801;55.786;49.142;2024-02-14T12:38:08;6.50;;;1.02;;
66893;SDS011;53801;55.786;49.142;2024-02-14T12:40:35;4.70;;;1.05;;
66893;SDS011;53801;55.786;49.142;2024-02-14T12:43:00;4.50;;;1.10;;
66893;SDS011;53801;55.786;49.142;2024-02-14T12:45:26;5.43;;;1.63;;
66893;SDS011;53801;55.786;49.142;2024-02-14T12:47:52;4.80;;;1.30;;
66893;SDS011;53801;55.786;49.142;2024-02-14T12:50:18;5.30;;;1.77;;
66893;SDS011;53801;55.786;49.142;2024-02-14T12:52:46;4.57;;;1.02;;
66893;SDS011;53801;55.786;49.142;2024-02-14T12:55:11;4.30;;;1.20;;
66893;SDS011;53801;55.786;49.142;2024-02-14T12:57:38;7.60;;;2.00;;
66893;SDS011;53801;55.786;49.142;2024-02-14T13:00:04;3.75;;;1.40;;
66893;SDS011;53801;55.786;49.142;2024-02-14T13:02:37;7.18;;;1.92;;
66893;SDS011;53801;55.786;49.142;2024-02-14T13:05:04;5.38;;;1.45;;
66893;SDS011;53801;55.786;49.142;2024-02-14T13:07:36;6.82;;;1.70;;
66893;SDS011;53801;55.786;49.142;2024-02-14T13:10:02;4.00;;;1.17;;
66893;SDS011;53801;55.786;49.142;2024-02-14T13:12:29;5.43;;;1.40;;
66893;SDS011;53801;55.786;49.142;2024-02-14T13:14:55;7.40;;;1.73;;
66893;SDS011;53801;55.786;49.142;2024-02-14T13:17:20;4.97;;;2.07;;
66893;SDS011;53801;55.786;49.142;2024-02-14T13:19:46;5.57;;;1.83;;
66893;SDS011;53801;55.786;49.142;2024-02-14T13:22:14;3.88;;;1.45;;
66893;SDS011;53801;55.786;49.142;2024-02-14T13:24:43;4.05;;;1.13;;
66893;SDS011;53801;55.786;49.142;2024-02-14T13:27:09;7.83;;;1.20;;
66893;SDS011;53801;55.786;49.142;2024-02-14T13:29:37;4.43;;;1.33;;
66893;SDS011;53801;55.786;49.142;2024-02-14T13:32:05;3.87;;;1.40;;
66893;SDS011;53801;55.786;49.142;2024-02-14T13:34:33;7.38;;;2.55;;
66893;SDS011;53801;55.786;49.142;2024-02-14T13:37:01;3.05;;;1.10;;
66893;SDS011;53801;55.786;49.142;2024-02-14T13:39:35;3.67;;;1.77;;
66893;SDS011;53801;55.786;49.142;2024-02-14T13:42:00;4.38;;;1.13;;
66893;SDS011;53801;55.786;49.142;2024-02-14T13:44:27;4.30;;;1.35;;
66893;SDS011;53801;55.786;49.142;2024-02-14T13:46:55;3.63;;;0.90;;
66893;SDS011;53801;55.786;49.142;2024-02-14T13:49:23;8.63;;;1.65;;
66893;SDS011;53801;55.786;49.142;2024-02-14T13:51:52;2.35;;;0.90;;
66893;SDS011;53801;55.786;49.142;2024-02-14T13:54:18;2.80;;;0.50;;
66893;SDS011;53801;55.786;49.142;2024-02-14T13:56:44;2.20;;;1.15;;
66893;SDS011;53801;55.786;49.142;2024-02-14T13:59:10;3.90;;;1.23;;
66893;SDS011;53801;55.786;49.142;2024-02-14T14:01:35;3.03;;;0.85;;
66893;SDS011;53801;55.786;49.142;2024-02-14T14:04:02;5.22;;;1.23;;
66893;SDS011;53801;55.786;49.142;2024-02-14T14:06:29;11.10;;;1.70;;
66893;SDS011;53801;55.786;49.142;2024-02-14T14:08:55;3.95;;;1.10;;
66893;SDS011;53801;55.786;49.142;2024-02-14T14:11:20;5.95;;;1.73;;
66893;SDS011;53801;55.786;49.142;2024-02-14T14:13:46;5.47;;;2.90;;
66893;SDS011;53801;55.786;49.142;2024-02-14T14:16:11;3.57;;;0.83;;
66893;SDS011;53801;55.786;49.142;2024-02-14T14:18:37;4.37;;;1.53;;
66893;SDS011;53801;55.786;49.142;2024-02-14T14:21:04;3.00;;;1.55;;
66893;SDS011;53801;55.786;49.142;2024-02-14T14:23:30;4.93;;;1.08;;
66893;SDS011;53801;55.786;49.142;2024-02-14T14:25:57;4.50;;;1.13;;
66893;SDS011;53801;55.786;49.142;2024-02-14T14:28:23;4.68;;;1.42;;
66893;SDS011;53801;55.786;49.142;2024-02-14T14:30:52;6.10;;;1.60;;
66893;SDS011;53801;55.786;49.142;2024-02-14T14:33:21;5.95;;;1.02;;
66893;SDS011;53801;55.786;49.142;2024-02-14T14:35:46;6.47;;;1.10;;
66893;SDS011;53801;55.786;49.142;2024-02-14T14:38:15;4.27;;;1.87;;
66893;SDS011;53801;55.786;49.142;2024-02-14T14:40:41;6.10;;;1.65;;
66893;SDS011;53801;55.786;49.142;2024-02-14T14:43:06;4.43;;;1.10;;